Time;durP1;ratioP1;P1;durP2;ratioP2;P2;SDS_P1;SDS_P2;PMS_P1;PMS_P2;Temp;Humidity;BMP_temperature;BMP_pressure;BME280_temperature;BME280_humidity;BME280_pressure;Samples;Min_cycle;Max_cycle;Signal;HPM_P1;HPM_P2
2021/01/22 00:01:24;;;;;;;18.27;9.70;;;;;;;5.35;79.90;99136.45;1675968;85;21237;-81
2021/01/22 00:03:51;;;;;;;16.70;8.80;;;;;;;5.31;79.74;99130.98;1678170;84;21253;-81
2021/01/22 00:06:17;;;;;;;;;;;;;;;5.27;79.75;99130.19;1680293;85;21236;-81
2021/01/22 00:08:43;;;;;;;16.25;8.95;;;;;;;5.24;79.69;99123.84;1651707;86;20294;-81
2021/01/22 00:11:10;;;;;;;21.00;9.80;;;;;;;5.19;79.79;99132.07;1716966;83;21157;-81
2021/01/22 00:13:36;;;;;;;21.00;10.58;;;;;;;5.15;79.74;99125.31;1697928;83;21173;-81
2021/01/22 00:16:03;;;;;;;17.42;9.38;;;;;;;5.12;79.81;99127.09;1703550;83;21197;-81
2021/01/22 00:18:30;;;;;;;16.65;9.70;;;;;;;5.10;79.79;99121.14;1716139;83;21586;-81
2021/01/22 00:20:56;;;;;;;20.25;10.98;;;;;;;5.06;79.78;99109.26;1715758;83;21170;-81
2021/01/22 00:23:23;;;;;;;15.35;9.13;;;;;;;5.03;79.77;99111.44;1704388;83;21725;-81
2021/01/22 00:25:50;;;;;;;24.20;10.58;;;;;;;5.01;79.80;99108.06;1699658;83;21157;-81
2021/01/22 00:28:16;;;;;;;16.95;9.40;;;;;;;4.99;79.81;99107.24;1711169;83;21210;-81
2021/01/22 00:30:42;;;;;;;17.35;9.85;;;;;;;4.96;79.84;99103.02;1708739;82;21197;-81
2021/01/22 00:33:09;;;;;;;21.93;10.35;;;;;;;4.97;79.84;99112.83;1707090;82;21190;-81
2021/01/22 00:35:35;;;;;;;18.80;10.58;;;;;;;4.97;79.85;99100.02;1713584;82;21228;-81
2021/01/22 00:38:01;;;;;;;20.48;10.85;;;;;;;4.97;79.84;99097.02;1716769;83;21209;-81
2021/01/22 00:40:27;;;;;;;18.52;9.08;;;;;;;4.97;79.84;99107.70;1716906;82;21205;-81
2021/01/22 00:42:54;;;;;;;17.50;9.93;;;;;;;4.96;79.84;99108.14;1717022;83;21691;-81
2021/01/22 00:45:20;;;;;;;17.85;10.05;;;;;;;4.95;79.85;99098.77;1710814;83;21174;-81
2021/01/22 00:47:46;;;;;;;16.95;9.03;;;;;;;4.98;79.84;99099.14;1698302;83;21217;-81
2021/01/22 00:50:13;;;;;;;19.40;10.30;;;;;;;4.98;79.84;99097.43;1697288;83;21233;-81
2021/01/22 00:52:39;;;;;;;15.30;9.70;;;;;;;5.00;79.86;99092.28;1717404;83;26657;-81
2021/01/22 00:55:07;;;;;;;14.50;9.25;;;;;;;5.02;79.84;99089.26;1717287;83;21929;-81
2021/01/22 00:57:34;;;;;;;14.73;9.08;;;;;;;5.04;79.88;99087.52;1692010;83;21582;-81
2021/01/22 01:00:00;;;;;;;16.50;9.95;;;;;;;5.05;79.86;99089.20;1717423;83;21421;-82
2021/01/22 01:02:26;;;;;;;17.48;9.08;;;;;;;5.09;79.84;99092.55;1717215;83;21908;-82
2021/01/22 01:04:52;;;;;;;16.52;9.60;;;;;;;5.10;79.87;99082.71;1710086;83;21087;-81
2021/01/22 01:07:19;;;;;;;14.00;8.88;;;;;;;5.11;79.85;99088.24;1714885;83;21105;-82
2021/01/22 01:09:45;;;;;;;17.25;9.55;;;;;;;5.12;79.85;99075.41;1712558;82;21124;-82
2021/01/22 01:12:11;;;;;;;19.70;9.73;;;;;;;5.16;79.88;99080.04;1709342;83;21634;-82
2021/01/22 01:14:38;;;;;;;16.85;9.40;;;;;;;5.18;79.87;99080.42;1709091;83;21122;-82
2021/01/22 01:17:04;;;;;;;20.57;10.10;;;;;;;5.19;79.83;99071.02;1713312;83;21217;-82
2021/01/22 01:19:30;;;;;;;24.55;11.48;;;;;;;5.19;79.82;99069.30;1715538;83;21166;-82
2021/01/22 01:21:56;;;;;;;25.02;11.28;;;;;;;5.18;79.78;99052.23;1711629;83;21190;-82
2021/01/22 01:24:23;;;;;;;22.73;11.03;;;;;;;5.17;79.78;99060.80;1711147;83;21198;-82
2021/01/22 01:26:49;;;;;;;21.48;11.05;;;;;;;5.17;79.79;99059.95;1713382;83;22503;-82
2021/01/22 01:29:15;;;;;;;17.87;10.05;;;;;;;5.15;79.79;99033.08;1705697;83;21190;-82
2021/01/22 01:31:41;;;;;;;16.23;9.95;;;;;;;5.14;79.83;99040.80;1702122;83;21198;-82
2021/01/22 01:34:08;;;;;;;19.65;10.05;;;;;;;5.13;79.83;99046.79;1710866;83;21523;-81
2021/01/22 01:36:34;;;;;;;21.40;10.75;;;;;;;5.13;79.82;99036.11;1705700;83;21205;-81
2021/01/22 01:39:00;;;;;;;22.05;11.68;;;;;;;5.12;79.80;99024.17;1703335;83;21186;-81
2021/01/22 01:41:27;;;;;;;20.90;11.45;;;;;;;5.10;79.81;99004.58;1715798;83;21198;-81
2021/01/22 01:43:53;;;;;;;19.92;11.28;;;;;;;5.11;79.87;99011.39;1700194;83;21178;-81
2021/01/22 01:46:20;;;;;;;19.23;10.28;;;;;;;5.10;79.85;99006.70;1713070;83;21124;-81
2021/01/22 01:48:46;;;;;;;;;;;;;;;5.10;79.86;99000.73;1700310;83;21223;-81
2021/01/22 01:51:13;;;;;;;19.32;10.30;;;;;;;5.09;79.84;99004.17;1701185;83;21277;-81
2021/01/22 01:53:39;;;;;;;20.95;10.75;;;;;;;5.07;79.85;98999.08;1712416;83;21591;-81
2021/01/22 01:56:06;;;;;;;18.32;10.15;;;;;;;5.06;79.87;98987.58;1711334;83;21229;-81
2021/01/22 01:58:33;;;;;;;19.62;10.32;;;;;;;5.06;79.89;98999.95;1708147;83;21610;-81
2021/01/22 02:00:59;;;;;;;19.50;10.05;;;;;;;5.04;79.89;99008.10;1716090;83;21205;-81
2021/01/22 02:03:26;;;;;;;17.05;9.18;;;;;;;5.02;79.89;99007.28;1700627;83;21229;-81
2021/01/22 02:05:52;;;;;;;;;;;;;;;5.02;79.89;99016.69;1706229;83;21190;-81
2021/01/22 02:08:19;;;;;;;14.33;8.35;;;;;;;4.99;79.88;99008.63;1711446;83;20218;-81
2021/01/22 02:10:48;;;;;;;12.78;8.23;;;;;;;4.99;79.94;99009.91;1713855;83;21178;-81
2021/01/22 02:13:16;;;;;;;15.38;8.23;;;;;;;4.99;79.95;99002.22;1706814;83;21905;-81
2021/01/22 02:15:42;;;;;;;16.73;9.38;;;;;;;5.03;80.00;98991.48;1710864;83;21138;-81
2021/01/22 02:18:10;;;;;;;16.62;9.58;;;;;;;5.07;79.97;99002.92;1703125;83;21109;-81
2021/01/22 02:21:24;;;;;;;17.55;9.33;;;;;;;5.10;79.95;98990.05;1710044;83;21122;-81
2021/01/22 02:23:54;;;;;;;19.57;9.68;;;;;;;5.11;79.94;98984.05;1695334;83;21110;-81
2021/01/22 02:26:31;;;;;;;18.50;9.58;;;;;;;5.14;79.92;98983.99;1708885;83;21666;-81
2021/01/22 02:29:06;;;;;;;18.40;9.43;;;;;;;5.15;79.92;98977.15;1706873;83;21174;-81
2021/01/22 02:31:37;;;;;;;16.65;9.23;;;;;;;5.16;79.88;98973.71;1706197;83;21106;-81
2021/01/22 02:34:08;;;;;;;14.65;8.88;;;;;;;5.17;79.90;98972.84;1708918;83;21206;-81
2021/01/22 02:36:37;;;;;;;13.75;8.73;;;;;;;5.16;79.83;98975.84;1711010;83;21630;-81
2021/01/22 02:39:05;;;;;;;17.40;9.75;;;;;;;5.16;79.86;98973.71;1698841;83;21167;-81
2021/01/22 02:41:35;;;;;;;17.07;9.45;;;;;;;5.15;79.86;98979.27;1704703;83;21118;-81
2021/01/22 02:44:05;;;;;;;20.52;10.45;;;;;;;5.12;79.80;98978.49;1703375;83;21193;-81
2021/01/22 02:46:32;;;;;;;16.57;8.90;;;;;;;5.09;79.73;98972.14;1710448;83;21209;-83
2021/01/22 02:48:59;;;;;;;14.30;8.78;;;;;;;5.05;79.78;98966.68;1709505;83;21229;-82
2021/01/22 02:51:25;;;;;;;16.12;8.08;;;;;;;5.01;79.74;98964.62;1711507;83;21226;-82
2021/01/22 02:53:52;;;;;;;17.23;8.90;;;;;;;4.97;79.74;98961.27;1707364;83;21118;-82
2021/01/22 02:56:47;;;;;;;16.82;9.78;;;;;;;4.93;79.77;98945.55;1711661;83;21153;-82
2021/01/22 02:59:34;;;;;;;18.35;9.98;;;;;;;4.88;79.76;98940.12;1690602;83;21130;-82
2021/01/22 03:02:23;;;;;;;16.45;10.15;;;;;;;4.85;79.78;98947.42;1701177;83;21106;-81
2021/01/22 03:04:50;;;;;;;18.57;9.43;;;;;;;4.81;79.81;98943.23;1709246;83;21157;-81
2021/01/22 03:07:27;;;;;;;16.82;9.73;;;;;;;4.79;79.84;98948.82;1677318;83;21138;-81
2021/01/22 03:09:58;;;;;;;18.75;9.60;;;;;;;4.76;79.87;98948.87;1713061;83;21138;-81
2021/01/22 03:12:26;;;;;;;13.05;8.18;;;;;;;4.74;79.86;98944.66;1696404;83;21106;-81
2021/01/22 03:14:54;;;;;;;16.73;9.00;;;;;;;4.73;79.82;98939.98;1712192;83;21178;-81
2021/01/22 03:17:20;;;;;;;14.85;8.38;;;;;;;4.74;79.85;98931.86;1714998;83;21921;-82
2021/01/22 03:19:48;;;;;;;16.95;9.20;;;;;;;4.76;79.85;98929.67;1699872;83;21130;-82
2021/01/22 03:22:15;;;;;;;16.70;7.85;;;;;;;4.77;79.82;98919.84;1697400;83;21174;-81
2021/01/22 03:24:43;;;;;;;16.62;8.70;;;;;;;4.77;79.75;98916.44;1713132;83;21437;-81
2021/01/22 03:27:10;;;;;;;14.87;7.85;;;;;;;4.78;79.80;98923.25;1710099;83;21110;-81
2021/01/22 03:29:37;;;;;;;16.02;8.43;;;;;;;4.78;79.80;98924.53;1716500;83;21165;-81
2021/01/22 03:32:05;;;;;;;13.68;7.80;;;;;;;4.80;79.81;98912.10;1709522;83;21122;-81
2021/01/22 03:34:32;;;;;;;13.35;8.05;;;;;;;4.81;79.75;98905.27;1715533;83;21123;-81
2021/01/22 03:37:01;;;;;;;16.32;8.58;;;;;;;4.81;79.77;98885.63;1709302;83;21662;-81
2021/01/22 03:39:29;;;;;;;14.05;8.05;;;;;;;4.83;79.78;98891.99;1699192;83;21229;-81
2021/01/22 03:41:55;;;;;;;13.00;6.85;;;;;;;4.84;79.76;98893.67;1710117;83;21607;-81
2021/01/22 03:44:21;;;;;;;;;;;;;;;4.85;79.75;98894.08;1717949;83;21737;-81
2021/01/22 03:46:48;;;;;;;11.75;7.35;;;;;;;4.86;79.71;98886.81;1698276;83;20367;-81
2021/01/22 03:49:15;;;;;;;17.25;7.20;;;;;;;4.87;79.73;98883.38;1696978;83;21212;-81
2021/01/22 03:51:41;;;;;;;12.82;7.17;;;;;;;4.89;79.69;98891.87;1704641;83;21202;-81
2021/01/22 03:54:07;;;;;;;9.95;6.90;;;;;;;4.90;79.67;98882.03;1695663;83;21214;-81
2021/01/22 03:56:33;;;;;;;10.70;6.92;;;;;;;4.91;79.66;98883.72;1709607;83;21185;-82
2021/01/22 03:59:00;;;;;;;14.15;7.45;;;;;;;4.94;79.67;98882.38;1710013;83;21186;-82
2021/01/22 04:01:29;;;;;;;12.47;7.55;;;;;;;4.93;79.62;98889.21;1715727;82;21177;-82
2021/01/22 04:03:54;;;;;;;14.60;7.50;;;;;;;4.94;79.59;98884.50;1715217;82;21197;-82
2021/01/22 04:06:20;;;;;;;12.60;7.03;;;;;;;4.93;79.61;98878.97;1704664;83;22350;-82
2021/01/22 04:08:47;;;;;;;13.20;7.42;;;;;;;4.94;79.59;98869.12;1701231;83;21184;-82
2021/01/22 04:11:13;;;;;;;10.13;6.62;;;;;;;4.94;79.56;98867.00;1693175;83;26746;-82
2021/01/22 04:13:40;;;;;;;13.75;7.15;;;;;;;4.94;79.56;98861.88;1715890;83;21189;-82
2021/01/22 04:16:06;;;;;;;14.50;7.30;;;;;;;4.92;79.55;98860.63;1710920;83;21198;-82
2021/01/22 04:18:32;;;;;;;13.28;7.10;;;;;;;4.92;79.52;98858.08;1699314;83;21177;-82
2021/01/22 04:20:59;;;;;;;15.65;8.38;;;;;;;4.93;79.52;98856.36;1705424;83;21226;-82
2021/01/22 04:23:25;;;;;;;16.35;8.70;;;;;;;4.91;79.49;98852.55;1708257;83;21197;-82
2021/01/22 04:25:51;;;;;;;15.40;9.35;;;;;;;4.89;79.48;98854.73;1714421;83;21205;-82
2021/01/22 04:28:17;;;;;;;16.48;8.33;;;;;;;4.85;79.47;98844.99;1706507;83;21214;-82
2021/01/22 04:30:44;;;;;;;14.10;7.92;;;;;;;4.84;79.50;98848.86;1710667;83;21993;-82
2021/01/22 04:33:10;;;;;;;15.68;7.95;;;;;;;4.81;79.50;98843.81;1702106;82;21201;-81
2021/01/22 04:35:36;;;;;;;18.52;7.25;;;;;;;4.77;79.50;98840.47;1709846;83;22189;-82
2021/01/22 04:38:02;;;;;;;12.40;7.22;;;;;;;4.74;79.52;98829.45;1697640;83;21237;-82
2021/01/22 04:40:30;;;;;;;12.50;7.42;;;;;;;4.72;79.52;98828.20;1715460;83;21234;-82
2021/01/22 04:42:56;;;;;;;15.35;8.13;;;;;;;4.70;79.50;98815.88;1709794;83;21653;-82
2021/01/22 04:45:23;;;;;;;13.88;7.03;;;;;;;4.68;79.51;98806.57;1715566;83;25285;-82
2021/01/22 04:47:49;;;;;;;13.58;7.20;;;;;;;4.64;79.55;98804.08;1715814;83;21142;-82
2021/01/22 04:50:18;;;;;;;14.25;7.28;;;;;;;4.62;79.55;98807.10;1713930;83;21230;-81
2021/01/22 04:52:46;;;;;;;14.20;7.25;;;;;;;4.61;79.53;98804.14;1715515;83;21185;-82
2021/01/22 04:55:14;;;;;;;17.15;7.08;;;;;;;4.60;79.54;98801.17;1705439;83;21205;-82
2021/01/22 04:57:43;;;;;;;13.62;6.90;;;;;;;4.61;79.54;98799.02;1702133;83;21125;-82
2021/01/22 05:00:12;;;;;;;10.70;6.87;;;;;;;4.60;79.52;98783.25;1703190;83;21440;-82
2021/01/22 05:02:39;;;;;;;12.30;6.65;;;;;;;4.59;79.47;98783.28;1709002;83;21723;-82
2021/01/22 05:05:07;;;;;;;11.48;6.40;;;;;;;4.57;79.48;98769.68;1708309;83;21079;-82
2021/01/22 05:07:34;;;;;;;9.70;5.50;;;;;;;4.54;79.47;98771.02;1716730;83;22096;-82
2021/01/22 05:10:01;;;;;;;10.98;5.78;;;;;;;4.51;79.49;98768.09;1725977;83;21150;-81
2021/01/22 05:12:37;;;;;;;10.30;6.20;;;;;;;4.48;79.50;98755.36;1722808;82;21117;-81
2021/01/22 05:15:14;;;;;;;14.05;6.17;;;;;;;4.47;79.48;98754.11;1714670;83;21094;-81
2021/01/22 05:17:59;;;;;;;9.75;6.65;;;;;;;4.44;79.50;98751.18;1719463;81;25493;-81
2021/01/22 05:20:39;;;;;;;9.93;6.42;;;;;;;4.41;79.51;98736.33;1719346;82;21219;-81
2021/01/22 05:23:08;;;;;;;7.70;5.83;;;;;;;4.39;79.50;98725.28;1723370;83;21161;-82
2021/01/22 05:25:59;;;;;;;10.35;6.22;;;;;;;4.36;79.50;98720.23;1698998;83;21157;-82
2021/01/22 05:28:36;;;;;;;11.63;6.28;;;;;;;4.33;79.49;98714.30;1719909;82;21114;-82
2021/01/22 05:31:03;;;;;;;13.15;6.83;;;;;;;4.33;79.54;98714.74;1718206;83;21118;-82
2021/01/22 05:33:30;;;;;;;13.62;6.10;;;;;;;4.31;79.54;98707.09;1698365;83;21137;-82
2021/01/22 05:35:56;;;;;;;14.28;6.62;;;;;;;4.30;79.56;98703.30;1718035;81;23102;-82
2021/01/22 05:38:41;;;;;;;12.55;6.42;;;;;;;4.29;79.50;98697.77;1720616;81;25205;-82
2021/01/22 05:41:08;;;;;;;9.13;6.17;;;;;;;4.28;79.57;98697.37;1702928;81;21260;-82
2021/01/22 05:43:38;;;;;;;13.13;5.87;;;;;;;4.26;79.52;98701.23;1710570;81;21225;-82
2021/01/22 05:46:13;;;;;;;9.10;6.35;;;;;;;4.26;79.58;98706.79;1699729;83;21222;-82
2021/01/22 05:48:39;;;;;;;8.55;6.00;;;;;;;4.25;79.60;98714.06;1697323;83;21229;-82
2021/01/22 05:51:06;;;;;;;8.23;5.35;;;;;;;4.25;79.57;98712.78;1714732;82;21181;-82
2021/01/22 05:53:32;;;;;;;10.23;5.90;;;;;;;4.25;79.60;98711.06;1724468;81;23519;-82
2021/01/22 05:56:15;;;;;;;7.72;5.30;;;;;;;4.26;79.60;98707.63;1715375;82;21126;-82
2021/01/22 05:58:46;;;;;;;10.10;5.67;;;;;;;4.29;79.63;98713.13;1719646;83;21520;-82
2021/01/22 06:01:15;;;;;;;12.50;6.78;;;;;;;4.31;79.67;98703.70;1708007;83;21130;-82
2021/01/22 06:03:53;;;;;;;11.93;6.40;;;;;;;4.33;79.63;98709.19;1720020;82;20995;-81
2021/01/22 06:06:20;;;;;;;10.80;6.28;;;;;;;4.35;79.62;98712.99;1701170;83;21196;-81
2021/01/22 06:08:56;;;;;;;13.68;5.80;;;;;;;4.38;79.64;98715.48;1698292;83;21197;-79
2021/01/22 06:11:26;;;;;;;14.90;6.15;;;;;;;4.39;79.61;98713.33;1686642;83;21700;-79
2021/01/22 06:13:55;;;;;;;11.33;5.25;;;;;;;4.40;79.58;98722.69;1686673;84;21242;-79
2021/01/22 06:16:27;;;;;;;11.25;6.03;;;;;;;4.41;79.56;98724.38;1703888;82;21148;-79
2021/01/22 06:19:04;;;;;;;11.18;6.17;;;;;;;4.40;79.56;98720.13;1706904;82;21126;-79
2021/01/22 06:21:33;;;;;;;;;;;;;;;4.40;79.57;98720.13;1708327;83;21094;-79
2021/01/22 06:24:02;;;;;;;9.70;5.78;;;;;;;4.38;79.53;98727.00;1707744;83;21833;-79
2021/01/22 06:26:39;;;;;;;8.98;5.85;;;;;;;4.38;79.58;98741.07;1708063;83;21134;-80
2021/01/22 06:29:12;;;;;;;14.60;6.00;;;;;;;4.40;79.59;98735.92;1703862;82;21125;-82
2021/01/22 06:31:42;;;;;;;14.47;6.55;;;;;;;4.39;79.59;98732.52;1700298;82;21132;-83
2021/01/22 06:34:13;;;;;;;13.13;6.05;;;;;;;4.39;79.63;98738.08;1708371;82;21090;-83
2021/01/22 06:36:42;;;;;;;11.05;6.37;;;;;;;4.38;79.63;98727.44;1704837;83;22338;-80
2021/01/22 06:39:10;;;;;;;11.57;6.53;;;;;;;4.37;79.62;98730.44;1705402;82;21178;-80
2021/01/22 06:41:38;;;;;;;12.20;6.40;;;;;;;4.37;79.63;98723.19;1706954;83;21305;-80
2021/01/22 06:44:04;;;;;;;13.00;6.00;;;;;;;4.36;79.63;98729.19;1709649;83;21567;-80
2021/01/22 06:46:36;;;;;;;9.03;5.92;;;;;;;4.33;79.63;98730.94;1712339;83;21111;-80
2021/01/22 06:49:03;;;;;;;11.90;6.58;;;;;;;4.34;79.66;98727.94;1712154;83;21145;-80
2021/01/22 06:51:36;;;;;;;11.45;6.08;;;;;;;4.36;79.71;98725.34;1708328;83;21348;-80
2021/01/22 06:54:07;;;;;;;12.68;6.92;;;;;;;4.36;79.70;98724.91;1705143;83;21117;-80
2021/01/22 06:56:38;;;;;;;16.65;5.90;;;;;;;4.37;79.69;98722.76;1666578;85;21552;-80
2021/01/22 06:59:24;;;;;;;10.80;5.72;;;;;;;4.38;79.72;98711.64;1641575;85;21162;-80
2021/01/22 07:01:54;;;;;;;15.10;6.50;;;;;;;4.40;79.75;98708.62;1640256;85;21595;-80
2021/01/22 07:04:37;;;;;;;12.58;6.60;;;;;;;4.42;79.77;98707.30;1641182;87;21452;-80
2021/01/22 07:07:10;;;;;;;12.55;6.40;;;;;;;4.44;79.77;98695.32;1584512;88;21174;-81
2021/01/22 07:09:50;;;;;;;8.78;5.58;;;;;;;4.48;79.78;98702.05;1634158;87;21174;-81
2021/01/22 07:12:39;;;;;;;13.43;5.90;;;;;;;4.50;79.77;98695.19;1641412;85;21154;-79
2021/01/22 07:15:25;;;;;;;10.48;6.10;;;;;;;4.52;79.77;98694.71;1651079;85;21717;-80
2021/01/22 07:17:55;;;;;;;;;;;;;;;4.56;79.88;98697.61;1645490;86;21173;-81
2021/01/22 07:20:22;;;;;;;8.73;5.30;;;;;;;4.60;79.79;98695.39;1648478;85;20287;-80
2021/01/22 07:22:59;;;;;;;11.28;5.92;;;;;;;4.62;79.79;98692.35;1629160;86;21142;-80
2021/01/22 07:25:42;;;;;;;10.38;5.80;;;;;;;4.63;79.79;98697.44;1652829;86;21703;-80
2021/01/22 07:28:27;;;;;;;8.50;5.80;;;;;;;4.64;79.77;98705.52;1654217;85;21150;-80
2021/01/22 07:30:53;;;;;;;10.03;6.00;;;;;;;4.65;79.74;98708.92;1648584;86;21303;-80
2021/01/22 07:33:36;;;;;;;9.93;6.17;;;;;;;4.68;79.78;98708.82;1646570;86;21150;-80
2021/01/22 07:36:20;;;;;;;10.45;5.55;;;;;;;4.67;79.75;98708.89;1648437;85;21588;-79
2021/01/22 07:38:42;;;;;;;9.13;5.70;;;;;;;4.68;79.77;98705.45;1649138;86;21150;-80
2021/01/22 07:41:10;;;;;;;9.45;5.85;;;;;;;4.69;79.78;98707.10;1651760;85;21165;-80
2021/01/22 07:43:36;;;;;;;14.18;6.45;;;;;;;4.70;79.80;98706.23;1619230;87;21145;-81
2021/01/22 07:46:10;;;;;;;;;;;;;;;4.70;79.75;98705.79;1622962;86;21135;-80
2021/01/22 07:48:37;;;;;;;11.65;5.37;;;;;;;4.70;79.78;98707.50;1639035;85;20283;-80
2021/01/22 07:51:33;;;;;;;12.07;6.08;;;;;;;4.69;79.79;98694.30;1651064;85;21162;-80
2021/01/22 07:54:01;;;;;;;13.90;6.80;;;;;;;4.67;79.81;98685.84;1656342;85;21364;-80
2021/01/22 07:56:42;;;;;;;17.48;7.47;;;;;;;4.68;79.81;98692.18;1643296;85;21583;-80
2021/01/22 07:59:11;;;;;;;16.30;7.70;;;;;;;4.69;79.82;98687.91;1617026;87;21145;-80
2021/01/22 08:01:42;;;;;;;16.37;7.25;;;;;;;4.66;79.83;98681.17;1616051;87;21175;-80
2021/01/22 08:04:08;;;;;;;15.32;7.35;;;;;;;4.67;79.86;98683.28;1640426;85;21230;-80
2021/01/22 08:06:51;;;;;;;;;;;;;;;4.68;79.90;98676.82;1621033;86;22745;-80
2021/01/22 08:09:20;;;;;;;13.45;6.83;;;;;;;4.73;79.95;98686.52;1642988;86;20307;-80
2021/01/22 08:11:48;;;;;;;16.23;7.67;;;;;;;4.78;79.94;98685.13;1680085;85;21171;-80
2021/01/22 08:14:34;;;;;;;16.23;6.58;;;;;;;4.81;79.98;98676.94;1679607;84;21156;-79
2021/01/22 08:17:03;;;;;;;13.05;7.05;;;;;;;4.86;80.00;98687.91;1648861;85;21577;-79
2021/01/22 08:19:32;;;;;;;12.03;6.90;;;;;;;4.91;79.99;98691.20;1682854;84;21247;-79
2021/01/22 08:21:59;;;;;;;10.08;7.12;;;;;;;4.97;80.02;98669.73;1641368;86;21179;-79
2021/01/22 08:24:34;;;;;;;11.78;6.05;;;;;;;5.04;80.02;98672.55;1643108;86;21196;-79
2021/01/22 08:27:03;;;;;;;14.15;6.50;;;;;;;5.11;80.05;98680.48;1649527;85;21227;-81
2021/01/22 08:29:32;;;;;;;14.70;7.53;;;;;;;5.20;80.02;98678.94;1653083;85;21207;-81
2021/01/22 08:31:59;;;;;;;10.28;6.15;;;;;;;5.28;80.01;98673.17;1650165;85;21272;-81
2021/01/22 08:34:26;;;;;;;10.35;5.58;;;;;;;5.37;79.98;98677.22;1650390;85;21153;-80
2021/01/22 08:36:55;;;;;;;;;;;;;;;5.42;80.00;98682.23;1658458;86;21174;-78
2021/01/22 08:39:22;;;;;;;11.48;6.40;;;;;;;5.47;79.97;98676.11;1680070;84;20261;-80
2021/01/22 08:41:48;;;;;;;9.88;5.72;;;;;;;5.51;80.01;98665.33;1643579;86;21174;-79
2021/01/22 08:44:15;;;;;;;12.78;6.03;;;;;;;5.54;79.96;98666.53;1664749;85;21174;-79
2021/01/22 08:46:54;;;;;;;8.48;5.95;;;;;;;5.58;79.98;98667.69;1665584;84;21143;-80
2021/01/22 08:49:21;;;;;;;11.45;6.15;;;;;;;5.64;79.98;98670.53;1665697;85;21158;-80
2021/01/22 08:51:47;;;;;;;;;;;;;;;5.70;79.95;98677.22;1666689;84;21514;-80
2021/01/22 08:54:13;;;;;;;8.73;5.58;;;;;;;5.75;79.96;98672.33;1665752;85;20271;-81
2021/01/22 08:56:42;;;;;;;9.40;5.03;;;;;;;5.83;80.00;98666.55;1663496;85;21208;-80
2021/01/22 08:59:13;;;;;;;8.55;5.72;;;;;;;5.92;79.99;98671.89;1662937;85;21057;-80
2021/01/22 09:01:59;;;;;;;9.78;5.17;;;;;;;6.03;80.00;98676.72;1663728;85;21543;-80
2021/01/22 09:04:34;;;;;;;10.72;5.97;;;;;;;6.12;79.94;98664.91;1658423;85;21916;-80
2021/01/22 09:07:10;;;;;;;10.10;5.53;;;;;;;6.12;79.91;98645.23;1672879;83;21146;-80
2021/01/22 09:09:46;;;;;;;11.20;5.45;;;;;;;6.34;79.89;98670.22;1640666;86;21566;-80
2021/01/22 09:12:29;;;;;;;14.78;5.80;;;;;;;6.45;79.88;98668.17;1645343;85;21380;-80
2021/01/22 09:15:16;;;;;;;11.53;5.40;;;;;;;6.55;79.84;98670.41;1637599;86;21746;-80
2021/01/22 09:17:49;;;;;;;7.87;4.22;;;;;;;6.68;79.78;98672.16;1653474;85;21099;-81
2021/01/22 09:20:25;;;;;;;7.90;5.17;;;;;;;6.79;79.75;98663.64;1657889;85;21144;-81
2021/01/22 09:22:55;;;;;;;7.92;5.03;;;;;;;6.88;79.72;98665.08;1645305;85;22519;-81
2021/01/22 09:25:26;;;;;;;9.48;5.05;;;;;;;6.97;79.68;98676.34;1628809;87;21445;-81
2021/01/22 09:27:52;;;;;;;8.68;4.90;;;;;;;7.05;79.64;98666.66;1624257;86;21137;-80
2021/01/22 09:30:24;;;;;;;12.95;5.40;;;;;;;7.12;79.64;98662.16;1616440;87;21564;-80
2021/01/22 09:32:53;;;;;;;12.45;5.75;;;;;;;7.19;79.64;98669.61;1634507;86;21123;-81
2021/01/22 09:35:22;;;;;;;11.88;5.28;;;;;;;7.27;79.62;98668.91;1617952;87;21667;-79
2021/01/22 09:37:49;;;;;;;12.00;5.70;;;;;;;7.37;79.67;98671.98;1616331;86;21252;-80
2021/01/22 09:40:17;;;;;;;10.25;5.45;;;;;;;7.46;79.60;98665.23;1618625;87;25870;-79
2021/01/22 09:42:43;;;;;;;7.20;5.33;;;;;;;7.46;79.80;98647.69;1621018;86;21233;-79
2021/01/22 09:45:12;;;;;;;7.83;5.17;;;;;;;7.66;79.58;98665.83;1626908;87;21251;-79
2021/01/22 09:47:39;;;;;;;13.15;5.65;;;;;;;7.75;79.61;98666.80;1624915;86;21343;-80
2021/01/22 09:50:11;;;;;;;8.55;5.10;;;;;;;7.85;79.58;98650.55;1611461;88;21806;-80
2021/01/22 09:52:39;;;;;;;9.10;4.95;;;;;;;7.94;79.54;98649.77;1633999;85;21220;-80
2021/01/22 09:55:09;;;;;;;10.08;4.92;;;;;;;8.06;79.55;98651.05;1634412;87;21706;-80
2021/01/22 09:57:36;;;;;;;8.73;4.30;;;;;;;8.17;79.42;98651.94;1639186;86;21663;-80
2021/01/22 10:00:07;;;;;;;8.35;4.60;;;;;;;8.27;79.32;98649.41;1608680;87;21269;-80
2021/01/22 10:02:34;;;;;;;8.90;4.37;;;;;;;8.37;79.27;98648.61;1625750;87;21145;-80
2021/01/22 10:05:01;;;;;;;6.67;4.40;;;;;;;8.45;79.28;98646.58;1639891;85;21242;-81
2021/01/22 10:07:27;;;;;;;7.25;4.10;;;;;;;8.51;79.17;98637.33;1634402;85;21678;-79
2021/01/22 10:09:56;;;;;;;6.50;4.33;;;;;;;8.58;79.19;98646.49;1663562;85;21532;-79
2021/01/22 10:12:22;;;;;;;8.68;5.05;;;;;;;8.65;79.14;98653.53;1661411;84;21223;-80
2021/01/22 10:14:50;;;;;;;9.48;4.75;;;;;;;8.71;79.06;98648.97;1661638;85;25336;-80
2021/01/22 10:17:22;;;;;;;8.05;5.17;;;;;;;8.76;79.07;98643.64;1664859;85;22285;-79
2021/01/22 10:19:50;;;;;;;6.15;4.53;;;;;;;8.80;79.09;98642.16;1677216;85;21134;-79
2021/01/22 10:22:17;;;;;;;8.28;4.65;;;;;;;8.87;79.03;98647.43;1666584;84;21151;-79
2021/01/22 10:24:43;;;;;;;8.95;5.60;;;;;;;8.92;79.07;98645.95;1666853;85;21881;-79
2021/01/22 10:27:17;;;;;;;8.05;4.05;;;;;;;8.98;79.10;98637.97;1666789;85;21435;-79
2021/01/22 10:29:45;;;;;;;7.55;4.85;;;;;;;9.03;79.07;98642.48;1665199;84;21134;-79
2021/01/22 10:32:15;;;;;;;8.90;4.95;;;;;;;9.08;79.02;98637.98;1662567;85;21118;-79
2021/01/22 10:34:43;;;;;;;8.68;5.28;;;;;;;9.14;79.00;98634.31;1662127;85;21526;-79
2021/01/22 10:37:09;;;;;;;8.28;4.85;;;;;;;9.18;78.97;98639.73;1665774;85;21590;-79
2021/01/22 10:39:41;;;;;;;8.08;5.00;;;;;;;9.21;78.92;98639.15;1666393;84;21167;-79
2021/01/22 10:42:07;;;;;;;6.05;4.22;;;;;;;9.25;79.00;98632.13;1662859;85;21346;-81
2021/01/22 10:44:33;;;;;;;11.38;4.55;;;;;;;9.31;78.96;98632.31;1662623;85;21536;-81
2021/01/22 10:47:02;;;;;;;8.50;5.08;;;;;;;9.36;78.93;98632.95;1664048;85;21131;-81
2021/01/22 10:49:29;;;;;;;10.23;5.00;;;;;;;9.40;78.87;98635.31;1663753;84;21187;-81
2021/01/22 10:51:56;;;;;;;6.92;4.28;;;;;;;9.42;78.83;98637.37;1663083;85;21440;-81
2021/01/22 10:54:24;;;;;;;7.65;4.00;;;;;;;9.45;78.75;98628.21;1666075;85;21125;-81
2021/01/22 10:56:51;;;;;;;9.23;4.83;;;;;;;9.47;78.75;98632.86;1666861;84;21106;-81
2021/01/22 10:59:17;;;;;;;7.08;3.65;;;;;;;9.49;78.69;98632.34;1641475;85;21524;-81
2021/01/22 11:01:43;;;;;;;8.03;3.62;;;;;;;9.51;78.69;98632.27;1661544;85;21284;-81
2021/01/22 11:04:10;;;;;;;8.63;3.77;;;;;;;9.51;78.59;98627.11;1663684;84;21187;-78
2021/01/22 11:06:36;;;;;;;7.42;3.80;;;;;;;9.52;78.53;98629.63;1682190;85;21195;-80
2021/01/22 11:09:03;;;;;;;8.15;3.90;;;;;;;9.50;78.52;98630.59;1656924;85;21202;-80
2021/01/22 11:11:29;;;;;;;8.13;3.45;;;;;;;9.49;78.47;98626.34;1653284;86;21255;-80
2021/01/22 11:13:56;;;;;;;6.78;2.87;;;;;;;9.48;78.51;98622.08;1687073;83;21230;-80
2021/01/22 11:16:22;;;;;;;7.47;3.35;;;;;;;9.48;78.46;98616.47;1677635;84;21226;-80
2021/01/22 11:18:48;;;;;;;6.42;3.40;;;;;;;9.50;78.42;98618.98;1648808;86;22124;-80
2021/01/22 11:21:16;;;;;;;7.90;4.20;;;;;;;9.49;78.42;98621.18;1678942;83;21223;-80
2021/01/22 11:23:42;;;;;;;5.42;3.27;;;;;;;9.49;78.45;98617.31;1633013;86;21550;-79
2021/01/22 11:26:09;;;;;;;5.83;3.52;;;;;;;9.49;78.44;98617.31;1645632;85;22275;-79
2021/01/22 11:28:35;;;;;;;10.13;3.52;;;;;;;9.51;78.45;98617.62;1675706;85;21242;-80
2021/01/22 11:31:02;;;;;;;8.40;3.98;;;;;;;9.54;78.38;98616.66;1690507;83;21234;-80
2021/01/22 11:33:28;;;;;;;;;;;;;;;9.55;78.31;98611.44;1645146;86;21285;-79
2021/01/22 11:35:54;;;;;;;5.15;3.58;;;;;;;9.57;78.15;98610.91;1647564;85;20585;-80
2021/01/22 11:38:21;;;;;;;6.92;3.45;;;;;;;9.57;78.30;98619.11;1644880;86;21967;-79
2021/01/22 11:40:47;;;;;;;6.12;3.90;;;;;;;9.57;78.31;98614.78;1659635;85;21241;-80
2021/01/22 11:43:13;;;;;;;6.25;4.28;;;;;;;9.59;78.25;98615.55;1662674;85;21202;-82
2021/01/22 11:45:39;;;;;;;6.10;3.87;;;;;;;9.59;78.25;98610.39;1663460;84;21230;-79
2021/01/22 11:48:07;;;;;;;7.50;3.80;;;;;;;9.59;78.21;98615.55;1662559;84;21229;-79